createdAt,value
2022-07-26T00:06:51.045Z,98800.58
2022-07-26T00:16:57.407Z,98795.11
2022-07-26T00:27:03.333Z,98772.77
2022-07-26T00:37:09.140Z,98757.70
2022-07-26T00:47:15.590Z,98767.27
2022-07-26T00:57:22.054Z,98770.39
2022-07-26T01:07:28.287Z,98761.09
2022-07-26T01:17:36.288Z,98764.52
2022-07-26T01:27:44.383Z,98752.13
2022-07-26T01:37:50.150Z,98737.04
2022-07-26T01:47:56.142Z,98734.82
2022-07-26T01:58:02.036Z,98714.84
2022-07-26T02:08:08.071Z,98699.23
2022-07-26T02:18:16.130Z,98696.30
2022-07-26T02:28:23.139Z,98693.87
2022-07-26T02:38:29.014Z,98693.28
2022-07-26T02:48:34.877Z,98687.60
2022-07-26T02:58:40.895Z,98672.50
2022-07-26T03:08:47.104Z,98658.46
2022-07-26T03:18:52.845Z,98656.56
2022-07-26T03:28:59.202Z,98640.43
2022-07-26T03:39:05.468Z,98625.68
2022-07-26T03:49:16.433Z,98619.73
2022-07-26T03:59:24.281Z,98623.32
2022-07-26T04:09:30.070Z,98631.69
2022-07-26T04:19:39.776Z,98625.30
2022-07-26T04:29:45.693Z,98622.48
2022-07-26T04:39:54.921Z,98632.52
2022-07-26T04:50:01.063Z,98624.66
2022-07-26T05:00:21.356Z,98651.39
2022-07-26T05:10:33.473Z,98670.74
2022-07-26T05:20:40.552Z,98675.64
2022-07-26T05:30:47.084Z,98683.27
2022-07-26T05:40:52.783Z,98690.22
2022-07-26T05:51:00.174Z,98709.55
2022-07-26T06:01:06.416Z,98724.09
2022-07-26T06:11:12.192Z,98704.66
2022-07-26T06:21:17.947Z,98689.65
2022-07-26T06:31:24.421Z,98674.48
2022-07-26T06:41:30.522Z,98671.98
2022-07-26T06:51:36.276Z,98706.30
2022-07-26T07:01:58.812Z,98704.41
2022-07-26T07:12:09.981Z,98733.83
2022-07-26T07:22:16.314Z,98770.48
2022-07-26T07:32:22.165Z,98781.41
2022-07-26T07:42:30.455Z,98782.79
2022-07-26T07:52:36.306Z,98810.47
2022-07-26T08:02:42.102Z,98831.58
2022-07-26T08:12:51.165Z,98836.17
2022-07-26T08:22:57.679Z,98850.04
2022-07-26T08:33:03.493Z,98847.18
2022-07-26T08:43:11.319Z,98865.52
2022-07-26T08:53:17.487Z,98871.62
2022-07-26T09:03:28.240Z,98915.69
2022-07-26T09:13:53.156Z,98919.19
2022-07-26T09:24:00.039Z,98929.52
2022-07-26T09:34:07.801Z,98942.15
2022-07-26T09:44:22.937Z,98965.77
2022-07-26T09:54:37.013Z,98984.04
2022-07-26T10:04:44.493Z,99003.66
2022-07-26T10:14:52.162Z,98991.30
2022-07-26T10:24:59.462Z,98997.44
2022-07-26T10:35:38.978Z,99014.54
2022-07-26T10:45:45.568Z,99030.28
2022-07-26T10:55:58.158Z,99046.32
2022-07-26T11:06:15.586Z,99052.90
2022-07-26T11:16:23.512Z,99055.64
2022-07-26T11:26:35.066Z,99080.78
2022-07-26T11:36:43.628Z,99071.66
2022-07-26T11:46:50.339Z,99081.90
2022-07-26T11:57:02.231Z,99087.84
2022-07-26T12:07:16.235Z,99089.97
2022-07-26T12:17:22.045Z,99078.45
2022-07-26T12:27:30.525Z,99060.36
2022-07-26T12:37:41.040Z,99049.60
2022-07-26T12:47:49.666Z,99058.83
2022-07-26T12:57:55.849Z,99076.28
2022-07-26T13:08:03.281Z,99077.45
2022-07-26T13:18:10.497Z,99075.37
2022-07-26T13:28:17.063Z,99077.30
2022-07-26T13:38:23.099Z,99074.05
2022-07-26T13:48:29.171Z,99084.11
2022-07-26T13:58:35.149Z,99080.06
2022-07-26T14:08:40.977Z,99086.89
2022-07-26T14:18:46.728Z,99091.79
2022-07-26T14:28:52.542Z,99096.43
2022-07-26T14:38:58.467Z,99099.84
2022-07-26T14:49:04.758Z,99102.77
2022-07-26T14:59:10.534Z,99102.38
2022-07-26T15:09:16.424Z,99109.27
2022-07-26T15:19:25.735Z,99108.30
2022-07-26T15:29:31.851Z,99107.05
2022-07-26T15:39:37.623Z,99105.02
2022-07-26T15:49:43.456Z,99097.34
2022-07-26T15:59:49.328Z,99091.30
2022-07-26T16:09:55.049Z,99085.22
2022-07-26T16:20:00.905Z,99077.59
2022-07-26T16:30:08.094Z,99082.85
2022-07-26T16:40:14.848Z,99086.79
2022-07-26T16:50:27.402Z,99085.77
2022-07-26T17:00:34.113Z,99081.49
2022-07-26T17:10:40.231Z,99081.57
2022-07-26T17:20:46.215Z,99080.67
2022-07-26T17:30:52.004Z,99087.08
2022-07-26T17:40:57.800Z,99088.35
2022-07-26T17:51:04.881Z,99085.03
2022-07-26T18:01:11.051Z,99088.57
2022-07-26T18:11:17.141Z,99089.38
2022-07-26T18:21:22.861Z,99093.70
2022-07-26T18:31:29.184Z,99091.88
2022-07-26T18:41:35.234Z,99102.15
2022-07-26T18:51:41.567Z,99102.71
2022-07-26T19:01:47.423Z,99099.60
2022-07-26T19:11:53.310Z,99108.55
2022-07-26T19:21:59.333Z,99113.26
2022-07-26T19:32:05.876Z,99113.69
2022-07-26T19:42:11.676Z,99111.05
2022-07-26T19:52:17.466Z,99107.59
2022-07-26T20:02:23.192Z,99102.66
2022-07-26T20:12:29.328Z,99104.86
2022-07-26T20:22:35.308Z,99106.70
2022-07-26T20:32:41.180Z,99103.56
2022-07-26T20:42:47.638Z,99112.95
2022-07-26T20:52:56.244Z,99116.48
2022-07-26T21:03:02.419Z,99121.80
2022-07-26T21:13:08.470Z,99128.31
2022-07-26T21:23:17.769Z,99131.79
2022-07-26T21:33:26.611Z,99140.50
2022-07-26T21:43:32.536Z,99145.24
2022-07-26T21:53:38.426Z,99153.61
2022-07-26T22:03:45.017Z,99162.45
2022-07-26T22:13:50.820Z,99162.46
2022-07-26T22:23:56.788Z,99161.63
2022-07-26T22:34:02.592Z,99171.00
2022-07-26T22:44:08.474Z,99179.53
2022-07-26T22:54:14.442Z,99186.75
2022-07-26T23:04:20.262Z,99187.10
2022-07-26T23:14:27.580Z,99199.44
2022-07-26T23:24:33.606Z,99210.58
2022-07-26T23:34:39.812Z,99213.00
2022-07-26T23:44:45.518Z,99221.73
2022-07-26T23:54:51.364Z,99227.49
